Time;durP1;ratioP1;P1;durP2;ratioP2;P2;SDS_P1;SDS_P2;PMS_P1;PMS_P2;Temp;Humidity;BMP_temperature;BMP_pressure;BME280_temperature;BME280_humidity;BME280_pressure;Samples;Min_cycle;Max_cycle;Signal;HPM_P1;HPM_P2
2023/06/04 00:00:00;;;;;;;13.37;6.90;;;19.60;99.90;;;;;;5079251;28;20181;-75
2023/06/04 00:02:27;;;;;;;14.77;7.33;;;19.60;99.90;;;;;;5053705;28;20621;-75
2023/06/04 00:04:53;;;;;;;23.37;7.40;;;19.60;99.90;;;;;;5075123;28;20199;-75
2023/06/04 00:07:20;;;;;;;14.37;7.73;;;19.50;99.90;;;;;;5076021;28;20738;-75
2023/06/04 00:09:46;;;;;;;15.73;6.77;;;19.50;99.90;;;;;;5075815;28;20187;-75
2023/06/04 00:12:13;;;;;;;17.23;6.70;;;19.50;99.90;;;;;;5082149;28;20594;-75
2023/06/04 00:14:39;;;;;;;12.87;6.23;;;19.50;99.90;;;;;;5057070;28;20276;-75
2023/06/04 00:17:06;;;;;;;15.97;6.90;;;19.50;99.90;;;;;;5074027;28;20321;-75
2023/06/04 00:19:33;;;;;;;14.67;6.90;;;19.60;99.90;;;;;;5056642;28;20597;-75
2023/06/04 00:22:00;;;;;;;12.90;6.77;;;19.60;99.90;;;;;;5075026;28;20691;-75
2023/06/04 00:24:26;;;;;;;12.97;6.73;;;19.60;99.90;;;;;;5046306;28;20213;-75
2023/06/04 00:26:52;;;;;;;18.63;7.20;;;19.60;99.90;;;;;;5079268;28;20197;-75
2023/06/04 00:29:18;;;;;;;15.47;6.70;;;19.50;99.90;;;;;;5060669;28;20186;-75
2023/06/04 00:31:45;;;;;;;12.70;6.33;;;19.50;99.90;;;;;;5058829;28;20186;-74
2023/06/04 00:34:12;;;;;;;19.60;7.70;;;19.50;99.90;;;;;;5079312;28;20220;-74
2023/06/04 00:36:39;;;;;;;14.90;7.17;;;19.40;99.90;;;;;;5062435;28;20688;-74
2023/06/04 00:39:05;;;;;;;17.07;7.07;;;19.30;99.90;;;;;;5062042;28;20201;-74
2023/06/04 00:41:32;;;;;;;14.93;7.40;;;19.10;99.90;;;;;;5074303;28;20186;-74
2023/06/04 00:44:01;;;;;;;17.97;7.87;;;19.20;99.90;;;;;;5077710;28;20206;-74
2023/06/04 00:46:29;;;;;;;20.93;7.57;;;19.30;99.90;;;;;;5056458;28;20243;-74
2023/06/04 00:48:55;;;;;;;18.43;7.50;;;19.30;99.90;;;;;;5057642;28;20186;-74
2023/06/04 00:51:23;;;;;;;15.60;6.90;;;19.40;99.90;;;;;;5044092;28;20186;-74
2023/06/04 00:53:53;;;;;;;14.83;7.07;;;19.40;99.90;;;;;;5048198;28;20936;-74
2023/06/04 00:56:19;;;;;;;16.33;7.30;;;19.40;99.90;;;;;;5076096;28;20182;-74
2023/06/04 00:58:47;;;;;;;23.23;7.73;;;19.20;99.90;;;;;;5075133;28;20962;-74
2023/06/04 01:01:40;;;;;;;13.97;7.70;;;19.10;99.90;;;;;;5060324;28;20186;-74
2023/06/04 01:04:27;;;;;;;22.40;7.50;;;19.10;99.90;;;;;;5060879;28;20272;-74
2023/06/04 01:07:00;;;;;;;17.67;7.40;;;19.10;99.90;;;;;;5063813;28;20618;-74
2023/06/04 01:09:27;;;;;;;17.57;7.70;;;19.30;99.90;;;;;;5076450;28;20188;-74
2023/06/04 01:11:54;;;;;;;19.07;7.23;;;19.30;99.90;;;;;;5045023;28;20188;-76
2023/06/04 01:14:21;;;;;;;17.97;7.27;;;19.20;99.90;;;;;;5074951;28;20700;-76
2023/06/04 01:17:03;;;;;;;14.83;7.13;;;19.30;99.90;;;;;;5076216;28;20221;-77
2023/06/04 01:20:32;;;;;;;19.57;7.43;;;19.30;99.90;;;;;;5073622;28;20190;-76
2023/06/04 01:23:42;;;;;;;16.57;6.60;;;19.20;99.90;;;;;;5050858;28;20197;-76
2023/06/04 01:26:10;;;;;;;20.07;7.73;;;19.20;99.90;;;;;;5038570;28;20289;-77
2023/06/04 01:28:38;;;;;;;13.73;6.97;;;19.10;99.90;;;;;;5090077;28;20592;-77
2023/06/04 01:31:08;;;;;;;18.47;6.80;;;19.10;99.90;;;;;;5075412;28;20197;-77
2023/06/04 01:33:35;;;;;;;20.47;7.60;;;19.10;99.90;;;;;;5043955;28;20202;-77
2023/06/04 01:36:02;;;;;;;12.70;7.00;;;19.00;99.90;;;;;;5063826;28;20190;-76
2023/06/04 01:38:28;;;;;;;18.50;7.37;;;19.00;99.90;;;;;;5062214;28;20212;-76
2023/06/04 01:40:56;;;;;;;15.97;7.27;;;19.00;99.90;;;;;;5080042;28;20592;-76
2023/06/04 01:43:23;;;;;;;15.50;7.90;;;18.90;99.90;;;;;;5064723;28;20834;-76
2023/06/04 01:45:50;;;;;;;12.43;6.38;;;18.90;99.90;;;;;;5058639;28;20413;-76
2023/06/04 01:48:16;;;;;;;10.67;6.53;;;19.00;99.90;;;;;;5049197;28;20182;-77
2023/06/04 01:50:42;;;;;;;18.37;7.37;;;19.00;99.90;;;;;;5098494;27;20336;-77
2023/06/04 02:04:11;;;;;;;21.90;7.57;;;18.80;99.90;;;;;;5075004;28;20210;-77
2023/06/04 02:06:37;;;;;;;16.23;6.50;;;18.90;99.90;;;;;;5077675;28;20235;-77
2023/06/04 02:09:04;;;;;;;13.83;7.07;;;18.90;99.90;;;;;;5095248;27;20272;-77
2023/06/04 02:11:30;;;;;;;15.53;6.97;;;18.90;99.90;;;;;;5076513;28;20178;-77
2023/06/04 02:13:57;;;;;;;15.20;6.43;;;18.90;99.90;;;;;;5048485;28;20200;-76
2023/06/04 02:16:23;;;;;;;15.60;7.27;;;18.90;99.90;;;;;;5080436;28;20312;-76
2023/06/04 02:18:49;;;;;;;10.43;6.33;;;18.80;99.90;;;;;;5059187;28;20248;-76
2023/06/04 02:21:15;;;;;;;17.40;6.80;;;18.80;99.90;;;;;;5077418;28;20201;-77
2023/06/04 02:23:41;;;;;;;17.37;6.77;;;18.80;99.90;;;;;;5077167;28;20218;-76
2023/06/04 02:26:07;;;;;;;12.70;6.43;;;18.80;99.90;;;;;;5075598;28;20213;-76
2023/06/04 02:28:34;;;;;;;13.53;7.00;;;18.70;99.90;;;;;;5077008;28;20206;-76
2023/06/04 02:31:00;;;;;;;24.10;6.50;;;18.70;99.90;;;;;;5078480;28;20581;-77
2023/06/04 02:33:26;;;;;;;16.27;7.07;;;18.60;99.90;;;;;;5061260;28;20225;-77
2023/06/04 02:35:52;;;;;;;12.90;6.27;;;18.70;99.90;;;;;;5091887;27;20187;-76
2023/06/04 02:38:18;;;;;;;17.17;6.50;;;18.70;99.90;;;;;;5065574;28;20212;-76
2023/06/04 02:40:45;;;;;;;10.60;6.07;;;18.70;99.90;;;;;;5062176;28;20650;-77
2023/06/04 02:43:11;;;;;;;16.17;6.57;;;18.80;99.90;;;;;;5072664;28;20174;-76
2023/06/04 02:45:38;;;;;;;12.57;6.73;;;18.70;99.90;;;;;;5081591;28;20306;-76
2023/06/04 02:48:04;;;;;;;14.97;7.03;;;18.70;99.90;;;;;;5081083;28;20189;-76
2023/06/04 02:50:30;;;;;;;13.97;6.93;;;18.70;99.90;;;;;;5060556;28;22327;-76
2023/06/04 02:52:56;;;;;;;12.83;6.90;;;18.70;99.90;;;;;;5081606;28;20663;-76
2023/06/04 02:55:23;;;;;;;14.53;6.80;;;18.60;99.90;;;;;;5096235;27;20733;-76
2023/06/04 02:57:51;;;;;;;16.00;6.57;;;18.70;99.90;;;;;;5077450;28;20190;-77
2023/06/04 03:00:18;;;;;;;15.90;6.67;;;18.70;99.90;;;;;;5063830;28;20237;-77
2023/06/04 03:02:47;;;;;;;15.23;6.80;;;18.70;99.90;;;;;;5076706;28;20547;-77
2023/06/04 03:05:17;;;;;;;16.70;6.77;;;18.70;99.90;;;;;;5068291;28;20210;-77
2023/06/04 03:07:45;;;;;;;15.03;6.70;;;18.70;99.90;;;;;;5059976;28;20258;-77
2023/06/04 03:10:14;;;;;;;16.07;7.10;;;18.70;99.90;;;;;;5079792;28;20934;-76
2023/06/04 03:12:40;;;;;;;15.83;6.83;;;18.70;99.90;;;;;;5089944;28;20183;-76
2023/06/04 03:15:07;;;;;;;13.00;6.20;;;18.70;99.90;;;;;;5079467;28;20284;-76
2023/06/04 03:17:34;;;;;;;17.60;6.83;;;18.70;99.90;;;;;;5092378;27;20578;-76
2023/06/04 03:20:00;;;;;;;13.90;6.50;;;18.70;99.90;;;;;;5078575;28;20190;-76
2023/06/04 03:22:28;;;;;;;16.03;6.53;;;18.70;99.90;;;;;;5075133;28;20182;-76
2023/06/04 03:24:54;;;;;;;13.20;6.43;;;18.70;99.90;;;;;;5060027;28;20210;-76
2023/06/04 03:27:21;;;;;;;16.50;6.77;;;18.80;99.90;;;;;;5060347;28;20178;-76
2023/06/04 03:29:48;;;;;;;12.40;5.90;;;18.80;99.90;;;;;;5078037;28;20186;-77
2023/06/04 03:32:15;;;;;;;17.23;6.47;;;18.70;99.90;;;;;;5073954;28;20186;-77
2023/06/04 03:34:42;;;;;;;15.40;7.10;;;18.70;99.90;;;;;;5063822;28;22540;-75
2023/06/04 03:37:10;;;;;;;15.97;6.97;;;18.70;99.90;;;;;;5076919;28;20260;-75
2023/06/04 03:39:36;;;;;;;14.03;7.40;;;18.70;99.90;;;;;;5078217;28;20186;-78
2023/06/04 03:42:03;;;;;;;16.63;6.73;;;18.70;99.90;;;;;;5073083;28;20562;-78
2023/06/04 03:44:29;;;;;;;20.23;7.37;;;18.80;99.90;;;;;;5068087;28;20741;-78
2023/06/04 03:46:56;;;;;;;13.40;7.00;;;18.70;99.90;;;;;;5078499;28;20210;-78
2023/06/04 03:49:22;;;;;;;14.10;6.63;;;18.70;99.90;;;;;;5060256;28;20283;-78
2023/06/04 03:51:49;;;;;;;14.57;7.23;;;18.70;99.90;;;;;;5090629;27;20346;-77
2023/06/04 03:54:18;;;;;;;12.43;6.27;;;18.70;99.90;;;;;;5079702;28;20655;-77
2023/06/04 03:56:46;;;;;;;19.33;7.53;;;18.70;99.90;;;;;;5063163;28;20982;-77
2023/06/04 03:59:13;;;;;;;18.03;7.53;;;18.80;99.90;;;;;;5076731;28;20221;-77
2023/06/04 04:01:39;;;;;;;16.63;7.60;;;18.80;99.90;;;;;;5066525;28;20185;-78
2023/06/04 04:04:06;;;;;;;13.10;7.47;;;18.70;99.90;;;;;;5075665;28;21389;-78
2023/06/04 04:06:32;;;;;;;15.30;7.00;;;18.80;99.90;;;;;;5062624;28;20577;-78
2023/06/04 04:08:58;;;;;;;15.60;7.43;;;18.80;99.90;;;;;;5063250;28;20185;-77
2023/06/04 04:11:25;;;;;;;15.67;7.40;;;18.80;99.90;;;;;;5077180;28;20225;-77
2023/06/04 04:13:51;;;;;;;15.17;6.93;;;18.90;99.90;;;;;;5079074;28;20188;-78
2023/06/04 04:16:18;;;;;;;11.50;6.80;;;18.90;99.90;;;;;;5074451;28;20537;-78
2023/06/04 04:18:44;;;;;;;10.97;6.43;;;18.90;99.90;;;;;;5091141;28;20870;-77
2023/06/04 04:21:11;;;;;;;9.47;6.37;;;18.90;99.90;;;;;;5074997;28;20893;-77
2023/06/04 04:23:42;;;;;;;14.33;7.13;;;19.00;99.90;;;;;;5062903;28;20193;-77
2023/06/04 04:26:16;;;;;;;13.10;6.40;;;19.10;99.90;;;;;;5045726;28;20273;-77
2023/06/04 04:28:43;;;;;;;10.37;6.23;;;19.10;99.90;;;;;;5089520;28;20247;-77
2023/06/04 04:31:10;;;;;;;16.57;6.63;;;19.10;99.90;;;;;;5073710;28;20242;-76
2023/06/04 04:33:39;;;;;;;16.37;6.30;;;19.10;99.90;;;;;;5078473;28;20185;-76
2023/06/04 04:36:12;;;;;;;15.10;6.57;;;19.20;99.90;;;;;;5063770;28;20192;-76
2023/06/04 04:38:38;;;;;;;13.40;6.23;;;19.20;99.90;;;;;;5079298;28;20178;-76
2023/06/04 04:41:07;;;;;;;10.83;6.27;;;19.20;99.90;;;;;;5077307;28;20214;-76
2023/06/04 04:43:37;;;;;;;17.33;6.37;;;19.20;99.90;;;;;;5078546;28;20193;-77
2023/06/04 04:46:04;;;;;;;14.33;6.90;;;19.20;99.90;;;;;;5077269;28;20535;-76
2023/06/04 04:48:31;;;;;;;15.13;6.30;;;19.30;99.90;;;;;;5091975;28;20236;-75
2023/06/04 04:50:57;;;;;;;12.63;6.70;;;19.30;99.90;;;;;;5076322;28;20204;-78
2023/06/04 04:53:23;;;;;;;12.87;6.30;;;19.40;99.90;;;;;;5075925;28;20233;-77
2023/06/04 04:55:50;;;;;;;18.77;7.10;;;19.40;99.90;;;;;;5092586;28;20387;-78
2023/06/04 04:58:17;;;;;;;13.83;6.03;;;19.50;99.90;;;;;;5063370;28;21188;-77
2023/06/04 05:00:43;;;;;;;17.47;6.27;;;19.60;99.90;;;;;;5060605;28;20193;-77
2023/06/04 05:03:09;;;;;;;15.27;6.50;;;19.70;99.90;;;;;;5077624;28;20190;-77
2023/06/04 05:05:36;;;;;;;12.30;6.23;;;19.70;99.90;;;;;;5053364;28;20207;-77
2023/06/04 05:08:02;;;;;;;12.13;6.40;;;19.70;99.90;;;;;;5072626;28;20663;-77
2023/06/04 05:10:28;;;;;;;14.60;6.60;;;19.70;99.90;;;;;;5077928;28;20182;-75
2023/06/04 05:12:58;;;;;;;15.37;5.93;;;19.60;99.90;;;;;;5061807;28;20182;-75
2023/06/04 05:15:26;;;;;;;13.53;5.73;;;19.60;99.90;;;;;;5082922;28;20258;-76
2023/06/04 05:17:53;;;;;;;12.07;5.80;;;19.70;99.90;;;;;;5081374;28;20615;-76
2023/06/04 05:20:21;;;;;;;10.90;5.60;;;19.70;99.90;;;;;;5085723;28;20198;-75
2023/06/04 05:22:47;;;;;;;12.07;4.90;;;19.70;99.90;;;;;;5065737;28;20198;-76
2023/06/04 05:25:14;;;;;;;17.40;5.57;;;19.70;99.90;;;;;;5078327;28;20229;-76
2023/06/04 05:27:41;;;;;;;13.80;5.40;;;19.80;99.90;;;;;;5063776;28;20316;-77
2023/06/04 05:30:09;;;;;;;10.00;4.73;;;19.80;99.90;;;;;;5077157;28;20617;-76
2023/06/04 05:32:40;;;;;;;11.67;5.10;;;19.80;99.90;;;;;;5074562;28;20201;-76
2023/06/04 05:35:09;;;;;;;13.37;5.50;;;19.90;99.90;;;;;;5092586;27;20190;-76
2023/06/04 05:37:37;;;;;;;12.67;5.37;;;19.90;99.90;;;;;;5088254;28;20876;-75
2023/06/04 05:40:05;;;;;;;12.83;4.90;;;20.00;99.90;;;;;;5078671;28;20300;-75
2023/06/04 05:42:32;;;;;;;14.07;5.60;;;20.00;99.90;;;;;;5062722;28;20674;-77
2023/06/04 05:44:58;;;;;;;18.43;5.23;;;20.10;99.90;;;;;;5089021;27;20218;-77
2023/06/04 05:47:24;;;;;;;15.57;5.50;;;20.00;99.90;;;;;;5065898;28;20262;-77
2023/06/04 05:49:50;;;;;;;14.03;5.37;;;20.10;99.90;;;;;;5082010;28;20217;-76
2023/06/04 05:52:17;;;;;;;8.00;4.93;;;20.10;99.90;;;;;;5095117;27;20194;-76
2023/06/04 05:54:43;;;;;;;10.53;4.70;;;20.20;99.90;;;;;;5063664;28;20671;-76
2023/06/04 05:57:09;;;;;;;8.93;4.93;;;20.20;99.90;;;;;;5063626;28;20592;-76
2023/06/04 05:59:35;;;;;;;12.10;5.13;;;20.30;99.90;;;;;;5079634;28;20209;-76
2023/06/04 06:02:02;;;;;;;8.13;4.50;;;20.30;99.90;;;;;;5057401;28;20221;-76
2023/06/04 06:04:28;;;;;;;8.70;4.33;;;20.30;99.90;;;;;;5079638;28;20686;-76
2023/06/04 06:06:55;;;;;;;9.63;4.10;;;20.30;99.90;;;;;;5077620;28;20193;-76
2023/06/04 06:09:21;;;;;;;12.77;4.53;;;20.30;99.90;;;;;;5062356;28;20273;-76
2023/06/04 06:11:47;;;;;;;11.53;4.77;;;20.40;99.90;;;;;;5085938;28;20189;-76
2023/06/04 06:14:14;;;;;;;9.43;4.53;;;20.50;99.90;;;;;;5081823;28;20195;-76
2023/06/04 06:16:41;;;;;;;8.43;4.37;;;20.50;99.90;;;;;;5062706;28;20205;-76
2023/06/04 06:19:07;;;;;;;11.17;4.90;;;20.60;99.90;;;;;;5077441;28;20198;-76
2023/06/04 06:21:36;;;;;;;9.27;4.53;;;20.70;99.90;;;;;;5078534;28;20659;-75
2023/06/04 06:24:02;;;;;;;7.73;4.37;;;20.80;99.90;;;;;;5089638;27;20246;-75
2023/06/04 06:26:29;;;;;;;10.57;4.07;;;20.80;99.90;;;;;;5064056;28;20611;-77
2023/06/04 06:28:55;;;;;;;7.43;4.20;;;20.90;99.90;;;;;;5065555;28;20448;-76
2023/06/04 06:31:22;;;;;;;6.83;4.13;;;20.90;99.90;;;;;;5061649;28;20528;-75
2023/06/04 06:33:48;;;;;;;11.40;4.37;;;21.00;99.90;;;;;;5091464;27;20182;-75
2023/06/04 06:36:18;;;;;;;8.30;4.23;;;21.00;99.90;;;;;;5075013;28;20205;-75
2023/06/04 06:38:46;;;;;;;8.73;4.33;;;21.00;99.90;;;;;;5058515;28;20309;-77
2023/06/04 06:41:12;;;;;;;8.67;4.23;;;21.00;99.90;;;;;;5058659;28;20612;-77
2023/06/04 06:43:40;;;;;;;9.67;4.50;;;21.00;99.90;;;;;;5059653;28;20264;-77
2023/06/04 06:46:07;;;;;;;9.27;4.70;;;21.00;99.90;;;;;;5071822;28;20292;-76
2023/06/04 06:48:33;;;;;;;10.90;4.33;;;21.00;99.90;;;;;;5080422;28;20198;-76
2023/06/04 06:50:59;;;;;;;12.70;4.43;;;21.10;99.90;;;;;;5056626;28;20190;-74
2023/06/04 06:53:25;;;;;;;10.83;4.43;;;21.20;99.90;;;;;;5059544;28;20343;-76
2023/06/04 06:55:51;;;;;;;10.67;4.27;;;21.20;99.90;;;;;;5070265;28;20189;-76
2023/06/04 06:58:18;;;;;;;8.70;4.17;;;21.30;99.90;;;;;;5076355;28;20194;-76
2023/06/04 07:00:44;;;;;;;11.33;4.67;;;21.30;99.90;;;;;;5060288;28;20216;-76
2023/06/04 07:03:11;;;;;;;12.23;4.03;;;21.40;99.90;;;;;;5071315;28;20904;-77
2023/06/04 07:05:37;;;;;;;10.60;4.37;;;21.50;99.90;;;;;;5079646;28;20219;-76
2023/06/04 07:08:03;;;;;;;8.77;4.30;;;21.60;99.90;;;;;;5057168;28;20630;-77
2023/06/04 07:10:30;;;;;;;7.53;3.53;;;21.60;99.90;;;;;;5058846;28;20186;-75
2023/06/04 07:12:57;;;;;;;10.60;4.20;;;21.60;99.90;;;;;;5075414;28;20228;-75
2023/06/04 07:15:23;;;;;;;9.47;3.90;;;21.70;99.90;;;;;;5071946;28;21062;-75
2023/06/04 07:17:49;;;;;;;6.17;4.17;;;21.80;99.90;;;;;;5060149;28;20197;-75
2023/06/04 07:20:16;;;;;;;8.87;4.03;;;21.90;99.90;;;;;;5092434;28;20259;-75
2023/06/04 07:22:42;;;;;;;9.97;4.10;;;22.00;99.90;;;;;;5044647;28;20194;-75
2023/06/04 07:25:09;;;;;;;9.50;4.27;;;22.00;99.90;;;;;;5079520;28;20275;-75
2023/06/04 07:27:35;;;;;;;10.10;4.07;;;22.10;99.90;;;;;;5082043;28;20182;-75
2023/06/04 07:30:01;;;;;;;13.33;4.60;;;22.10;99.90;;;;;;5079200;28;20204;-75
2023/06/04 07:32:28;;;;;;;5.97;4.22;;;22.20;99.90;;;;;;5079818;28;20705;-75
2023/06/04 07:34:54;;;;;;;10.13;4.20;;;22.20;99.90;;;;;;5060677;28;20865;-75
2023/06/04 07:37:20;;;;;;;8.37;3.87;;;22.20;99.90;;;;;;5081337;28;20286;-75
2023/06/04 07:39:46;;;;;;;10.80;3.97;;;22.30;99.90;;;;;;5072936;28;20631;-75
2023/06/04 07:42:13;;;;;;;8.77;4.10;;;22.50;99.90;;;;;;5056114;28;20195;-75
2023/06/04 07:44:40;;;;;;;8.00;3.90;;;22.60;99.90;;;;;;5074794;28;20668;-75
2023/06/04 07:47:06;;;;;;;9.98;3.97;;;22.80;99.90;;;;;;5059275;28;20205;-75
2023/06/04 07:49:32;;;;;;;9.43;4.30;;;22.80;99.90;;;;;;5048212;28;20189;-75
2023/06/04 07:51:59;;;;;;;7.45;4.18;;;22.90;99.90;;;;;;5059947;28;20197;-75
2023/06/04 07:54:25;;;;;;;7.00;3.65;;;22.90;99.90;;;;;;5064389;28;20690;-75
2023/06/04 07:56:55;;;;;;;7.10;3.70;;;23.00;99.90;;;;;;5056949;28;20510;-75
2023/06/04 07:59:24;;;;;;;6.30;3.42;;;23.10;99.90;;;;;;5077293;28;20183;-75
2023/06/04 08:01:51;;;;;;;14.77;4.10;;;23.10;99.90;;;;;;5055151;28;20335;-75
2023/06/04 08:04:18;;;;;;;8.30;4.20;;;23.00;99.90;;;;;;5043904;28;20203;-75
2023/06/04 08:06:45;;;;;;;7.82;4.03;;;23.10;99.90;;;;;;5077308;28;20751;-75
2023/06/04 08:09:12;;;;;;;9.50;3.92;;;23.20;99.90;;;;;;5056406;28;20186;-75
2023/06/04 08:11:41;;;;;;;7.88;3.95;;;23.30;99.90;;;;;;5073832;28;20178;-75
2023/06/04 08:14:07;;;;;;;9.93;4.22;;;23.40;99.90;;;;;;5091785;28;20226;-74
2023/06/04 08:16:34;;;;;;;9.15;4.00;;;23.60;99.90;;;;;;5056415;28;20243;-74
2023/06/04 08:19:00;;;;;;;5.53;3.28;;;23.70;99.90;;;;;;5056283;28;20195;-74
2023/06/04 08:21:28;;;;;;;5.07;3.20;;;23.70;99.90;;;;;;5056347;28;20186;-75
2023/06/04 08:23:55;;;;;;;7.93;3.78;;;24.00;99.90;;;;;;5068584;28;20213;-75
2023/06/04 08:26:23;;;;;;;10.38;3.80;;;24.00;99.90;;;;;;5075033;28;20183;-75
2023/06/04 08:28:50;;;;;;;9.35;4.28;;;24.10;99.90;;;;;;5074501;28;20178;-75
2023/06/04 08:31:17;;;;;;;8.02;4.47;;;24.20;99.90;;;;;;5057353;28;20411;-75
2023/06/04 08:33:46;;;;;;;8.32;4.13;;;24.10;99.90;;;;;;5072339;28;20181;-75
2023/06/04 08:36:12;;;;;;;5.80;3.92;;;24.20;99.90;;;;;;5059561;28;20581;-75
2023/06/04 08:38:39;;;;;;;8.55;3.80;;;24.40;99.90;;;;;;5087517;28;20190;-75
2023/06/04 08:41:44;;;;;;;8.38;3.97;;;24.60;99.90;;;;;;5072528;28;20182;-75
2023/06/04 08:44:11;;;;;;;7.32;4.10;;;24.70;99.90;;;;;;5077083;28;20211;-75
2023/06/04 08:46:42;;;;;;;7.18;3.97;;;24.60;99.90;;;;;;5056109;28;20194;-75
2023/06/04 08:49:11;;;;;;;9.05;4.00;;;24.60;99.90;;;;;;5081024;28;20249;-74
2023/06/04 08:51:38;;;;;;;10.10;4.00;;;24.70;99.90;;;;;;5079254;28;20174;-74
2023/06/04 08:54:07;;;;;;;9.38;4.55;;;24.80;99.90;;;;;;5076036;28;20194;-75
2023/06/04 08:56:35;;;;;;;5.80;3.80;;;24.90;99.90;;;;;;5075243;28;20194;-74
2023/06/04 08:59:05;;;;;;;8.18;4.00;;;25.00;99.90;;;;;;5060808;28;20183;-75
2023/06/04 09:01:37;;;;;;;12.50;4.38;;;25.20;99.90;;;;;;5076829;28;20598;-75
2023/06/04 09:04:10;;;;;;;8.55;3.88;;;25.40;99.90;;;;;;5058838;28;20237;-75
2023/06/04 09:06:38;;;;;;;5.68;3.88;;;25.60;99.90;;;;;;5073492;28;20193;-75
2023/06/04 09:09:09;;;;;;;7.85;4.03;;;25.60;99.90;;;;;;5079346;28;20194;-75
2023/06/04 09:11:45;;;;;;;8.15;4.13;;;25.60;99.90;;;;;;5058899;28;20784;-75
2023/06/04 09:14:18;;;;;;;10.50;4.18;;;25.70;99.90;;;;;;5079170;28;20185;-75
2023/06/04 09:16:54;;;;;;;11.98;3.90;;;25.70;99.90;;;;;;5072429;28;20760;-75
2023/06/04 09:19:21;;;;;;;12.02;3.72;;;25.60;99.90;;;;;;5060077;28;20187;-75
2023/06/04 09:21:57;;;;;;;5.57;3.70;;;25.60;99.90;;;;;;5072728;28;20202;-75
2023/06/04 09:24:38;;;;;;;5.88;3.70;;;25.70;99.90;;;;;;5077028;28;20258;-75
2023/06/04 09:27:18;;;;;;;10.52;4.15;;;25.40;99.90;;;;;;5056560;28;20200;-75
2023/06/04 09:29:55;;;;;;;6.63;3.70;;;25.60;99.90;;;;;;5092224;27;20205;-75
2023/06/04 09:32:30;;;;;;;6.20;3.60;;;25.70;99.90;;;;;;5059694;28;20683;-76
2023/06/04 09:35:18;;;;;;;7.45;3.58;;;25.60;99.90;;;;;;5086646;27;20225;-75
2023/06/04 09:37:57;;;;;;;7.93;4.28;;;25.60;99.90;;;;;;5080766;28;20190;-75
2023/06/04 09:40:24;;;;;;;6.18;3.85;;;25.70;99.90;;;;;;5075366;28;20214;-75
2023/06/04 09:42:54;;;;;;;9.35;4.28;;;25.80;99.90;;;;;;5078611;28;20185;-75
2023/06/04 09:45:32;;;;;;;9.25;4.13;;;25.80;99.90;;;;;;5062962;28;21185;-75
2023/06/04 09:48:00;;;;;;;6.85;4.00;;;25.90;99.90;;;;;;5057713;28;20214;-75
2023/06/04 09:50:30;;;;;;;9.07;3.90;;;25.90;99.90;;;;;;5078054;28;20213;-75
2023/06/04 09:52:57;;;;;;;5.93;3.83;;;26.10;99.90;;;;;;5076992;28;20551;-76
2023/06/04 09:55:23;;;;;;;8.40;4.68;;;26.20;99.90;;;;;;5047945;28;20828;-76
2023/06/04 09:57:52;;;;;;;8.65;4.18;;;26.20;99.90;;;;;;5065236;28;20186;-76
2023/06/04 10:00:26;;;;;;;6.35;3.90;;;26.20;99.90;;;;;;5096615;27;20756;-76
2023/06/04 10:02:58;;;;;;;8.23;4.05;;;26.20;99.90;;;;;;5068448;28;20228;-75
2023/06/04 10:05:26;;;;;;;6.03;4.10;;;26.10;99.90;;;;;;5084394;28;20297;-75
2023/06/04 10:07:54;;;;;;;6.45;3.72;;;26.10;99.90;;;;;;5097020;27;20189;-76
2023/06/04 10:10:26;;;;;;;8.95;4.10;;;26.20;99.90;;;;;;5062846;28;20205;-75
2023/06/04 10:13:10;;;;;;;5.90;3.90;;;26.10;99.90;;;;;;5062302;28;20182;-76
2023/06/04 10:15:37;;;;;;;8.35;4.57;;;26.10;99.90;;;;;;5087586;28;20717;-75
2023/06/04 10:18:04;;;;;;;7.95;4.20;;;26.00;99.90;;;;;;5067223;28;20205;-75
2023/06/04 10:20:31;;;;;;;6.35;3.92;;;26.10;99.90;;;;;;5084967;28;20198;-75
2023/06/04 10:23:00;;;;;;;6.20;3.88;;;26.10;99.90;;;;;;5065941;28;20189;-76
2023/06/04 10:25:28;;;;;;;9.80;3.90;;;26.10;99.90;;;;;;5066005;28;20307;-76
2023/06/04 10:27:54;;;;;;;6.30;4.13;;;26.00;99.90;;;;;;5051781;28;20674;-76
2023/06/04 10:30:20;;;;;;;9.82;4.50;;;26.00;99.90;;;;;;5062182;28;20193;-75
2023/06/04 10:32:47;;;;;;;11.40;4.18;;;26.10;99.90;;;;;;5085689;28;20189;-75
2023/06/04 10:35:15;;;;;;;6.82;4.10;;;26.00;99.90;;;;;;5063536;28;20186;-76
2023/06/04 10:37:41;;;;;;;7.05;3.67;;;25.90;99.90;;;;;;5082548;28;20277;-75
2023/06/04 10:40:09;;;;;;;9.57;3.67;;;25.90;99.90;;;;;;5082114;28;20225;-76
2023/06/04 10:42:43;;;;;;;6.95;3.83;;;25.90;99.90;;;;;;5076599;28;20674;-75
2023/06/04 10:45:11;;;;;;;8.82;3.72;;;25.90;99.90;;;;;;5066950;28;20205;-76
2023/06/04 10:47:40;;;;;;;5.88;3.83;;;25.90;99.90;;;;;;5069932;28;20182;-76
2023/06/04 10:50:12;;;;;;;5.30;3.45;;;25.80;99.90;;;;;;5081604;28;21457;-75
2023/06/04 10:52:54;;;;;;;6.53;3.83;;;25.80;99.90;;;;;;5064260;28;20198;-75
2023/06/04 10:55:20;;;;;;;5.93;3.25;;;25.80;99.90;;;;;;5085164;28;20190;-75
2023/06/04 10:58:01;;;;;;;5.05;4.03;;;25.80;99.90;;;;;;5063827;28;20735;-75
2023/06/04 11:00:47;;;;;;;8.40;3.80;;;25.80;99.90;;;;;;5063530;28;20187;-75
2023/06/04 11:03:13;;;;;;;5.38;3.78;;;25.70;99.90;;;;;;5080544;28;20201;-75
2023/06/04 11:05:45;;;;;;;6.38;3.83;;;25.60;99.90;;;;;;5088685;28;20266;-75
2023/06/04 11:08:30;;;;;;;8.18;3.95;;;25.70;99.90;;;;;;5084710;28;20295;-75
2023/06/04 11:10:56;;;;;;;7.43;3.53;;;25.70;99.90;;;;;;5071094;28;20183;-75
2023/06/04 11:13:26;;;;;;;5.03;3.45;;;25.70;99.90;;;;;;5086670;28;20547;-75
2023/06/04 11:15:52;;;;;;;9.50;4.00;;;25.70;99.90;;;;;;5069093;28;20198;-75
2023/06/04 11:18:21;;;;;;;6.75;3.50;;;25.70;99.90;;;;;;5083024;28;20190;-75
2023/06/04 11:20:58;;;;;;;5.75;3.75;;;25.70;99.90;;;;;;5065072;28;20328;-75
2023/06/04 11:23:25;;;;;;;8.00;3.90;;;25.60;99.90;;;;;;5069293;28;20216;-75
2023/06/04 11:25:54;;;;;;;6.25;3.45;;;25.70;99.90;;;;;;5081067;28;20734;-75
2023/06/04 11:28:24;;;;;;;5.03;3.60;;;25.70;99.90;;;;;;5070536;28;20195;-75
2023/06/04 11:31:05;;;;;;;9.55;3.58;;;25.50;99.90;;;;;;5051049;28;20186;-75
2023/06/04 11:33:45;;;;;;;5.30;3.70;;;25.60;99.90;;;;;;5088289;28;20654;-75
2023/06/04 11:36:27;;;;;;;6.03;3.85;;;25.60;99.90;;;;;;5084913;28;20246;-75
2023/06/04 11:39:02;;;;;;;11.02;4.18;;;25.70;99.90;;;;;;5056138;28;20626;-75
2023/06/04 11:41:34;;;;;;;7.53;3.92;;;25.80;99.90;;;;;;5050417;28;20293;-75
2023/06/04 11:44:06;;;;;;;7.05;3.97;;;25.70;99.90;;;;;;5073500;28;20611;-75
2023/06/04 11:46:33;;;;;;;9.07;4.20;;;25.70;99.90;;;;;;5085061;28;20217;-75
2023/06/04 11:49:01;;;;;;;10.30;4.45;;;25.90;99.90;;;;;;5086785;28;20213;-75
2023/06/04 11:51:28;;;;;;;9.88;4.35;;;25.90;99.90;;;;;;5088303;28;20200;-75
2023/06/04 11:53:55;;;;;;;8.38;4.00;;;25.90;99.90;;;;;;5083401;28;20221;-75
2023/06/04 11:56:25;;;;;;;8.77;4.07;;;26.00;99.90;;;;;;5069500;28;20189;-75
2023/06/04 11:58:54;;;;;;;8.85;4.15;;;25.90;99.90;;;;;;5084159;28;20527;-75
2023/06/04 12:01:21;;;;;;;6.75;4.13;;;25.80;99.90;;;;;;5087894;28;20186;-75
2023/06/04 12:03:47;;;;;;;7.07;4.07;;;25.70;99.90;;;;;;5068840;28;20264;-75
2023/06/04 12:06:20;;;;;;;6.82;4.15;;;25.60;99.90;;;;;;5066247;28;20848;-76
2023/06/04 12:08:48;;;;;;;8.60;4.07;;;25.50;99.90;;;;;;5085040;28;20189;-75
2023/06/04 12:11:27;;;;;;;6.63;4.03;;;25.30;99.90;;;;;;5064096;28;20178;-75
2023/06/04 12:14:04;;;;;;;8.38;4.25;;;25.40;99.90;;;;;;5088879;28;20941;-75
2023/06/04 12:16:31;;;;;;;5.55;3.83;;;25.40;99.90;;;;;;5085578;28;20262;-75
2023/06/04 12:19:13;;;;;;;13.02;3.80;;;25.50;99.90;;;;;;5087426;28;20193;-75
2023/06/04 12:21:41;;;;;;;8.07;4.05;;;25.40;99.90;;;;;;5083234;28;20595;-75
2023/06/04 12:24:15;;;;;;;7.80;4.00;;;25.40;99.90;;;;;;5068629;28;20333;-75
2023/06/04 12:26:44;;;;;;;8.73;4.40;;;25.40;99.90;;;;;;5081812;28;20205;-75
2023/06/04 12:29:19;;;;;;;12.00;3.95;;;25.40;99.90;;;;;;5085542;28;20311;-75
2023/06/04 12:31:46;;;;;;;8.07;3.85;;;25.40;99.90;;;;;;5089738;28;20718;-75
2023/06/04 12:34:17;;;;;;;9.65;4.20;;;25.40;99.90;;;;;;5085420;28;20190;-75
2023/06/04 12:36:43;;;;;;;5.78;3.88;;;25.30;99.90;;;;;;5084467;28;20192;-75
2023/06/04 12:39:10;;;;;;;9.98;4.70;;;25.20;99.90;;;;;;5082985;28;20255;-75
2023/06/04 12:41:36;;;;;;;10.57;4.28;;;25.10;99.90;;;;;;5088131;28;20185;-75
2023/06/04 12:44:02;;;;;;;6.97;4.07;;;25.20;99.90;;;;;;5068406;28;20194;-75
2023/06/04 12:46:28;;;;;;;8.23;4.03;;;25.20;99.90;;;;;;5067182;28;20649;-76
2023/06/04 12:48:55;;;;;;;8.50;3.83;;;25.20;99.90;;;;;;5069993;28;20192;-75
2023/06/04 12:51:22;;;;;;;8.32;4.03;;;25.20;99.90;;;;;;5094843;28;20193;-75
2023/06/04 12:53:48;;;;;;;9.07;3.65;;;25.30;99.90;;;;;;5067172;28;20268;-75
2023/06/04 12:56:15;;;;;;;10.27;3.47;;;25.30;99.90;;;;;;5067698;28;20191;-75
2023/06/04 12:58:42;;;;;;;9.02;3.97;;;25.20;99.90;;;;;;5065818;28;20182;-75